Time;durP1;ratioP1;P1;durP2;ratioP2;P2;SDS_P1;SDS_P2;PMS_P1;PMS_P2;Temp;Humidity;BMP_temperature;BMP_pressure;BME280_temperature;BME280_humidity;BME280_pressure;Samples;Min_cycle;Max_cycle;Signal;HPM_P1;HPM_P2
2023/05/27 00:01:04;;;;;;;16.63;5.82;;;;;;;;;;4978221;28;25176;-77
2023/05/27 00:03:30;;;;;;;18.58;5.13;;;;;;;;;;4988745;28;25118;-75
2023/05/27 00:05:56;;;;;;;17.02;4.93;;;;;;;;;;4989334;28;25104;-76
2023/05/27 00:08:22;;;;;;;18.50;5.13;;;;;;;;;;4988284;28;25087;-73
2023/05/27 00:10:48;;;;;;;24.75;5.75;;;;;;;;;;4985376;28;25086;-74
2023/05/27 00:13:14;;;;;;;19.27;4.95;;;;;;;;;;4988534;28;25125;-75
2023/05/27 00:15:41;;;;;;;21.20;4.85;;;;;;;;;;4988126;28;25115;-79
2023/05/27 00:18:07;;;;;;;13.82;3.90;;;;;;;;;;4987578;28;25067;-74
2023/05/27 00:20:33;;;;;;;18.65;4.97;;;;;;;;;;4982041;28;25101;-74
2023/05/27 00:23:00;;;;;;;20.75;5.03;;;;;;;;;;4979673;28;25067;-74
2023/05/27 00:25:26;;;;;;;14.63;4.88;;;;;;;;;;4983111;28;25061;-76
2023/05/27 00:27:52;;;;;;;22.20;5.13;;;;;;;;;;4991275;28;25112;-74
2023/05/27 00:30:18;;;;;;;14.07;4.20;;;;;;;;;;4981065;28;25096;-74
2023/05/27 00:32:44;;;;;;;18.02;5.03;;;;;;;;;;4973990;28;25053;-74
2023/05/27 00:35:10;;;;;;;14.10;4.40;;;;;;;;;;4968070;28;25103;-73
2023/05/27 00:37:36;;;;;;;19.20;4.13;;;;;;;;;;4968484;28;25073;-75
2023/05/27 00:40:02;;;;;;;18.45;4.65;;;;;;;;;;4967722;28;25081;-73
2023/05/27 00:42:28;;;;;;;17.90;4.63;;;;;;;;;;4980938;28;25093;-73
2023/05/27 00:44:54;;;;;;;20.77;5.80;;;;;;;;;;4976373;28;25136;-76
2023/05/27 00:47:20;;;;;;;23.38;5.68;;;;;;;;;;4968929;28;25065;-76
2023/05/27 00:49:47;;;;;;;21.40;4.55;;;;;;;;;;4967686;28;25121;-73
2023/05/27 00:52:13;;;;;;;18.23;3.92;;;;;;;;;;4967199;28;25077;-73
2023/05/27 00:54:39;;;;;;;20.27;3.83;;;;;;;;;;4969907;28;25170;-73
2023/05/27 00:57:06;;;;;;;18.95;4.20;;;;;;;;;;4967491;28;25066;-74
2023/05/27 00:59:32;;;;;;;15.57;4.80;;;;;;;;;;4967624;28;25139;-71
2023/05/27 01:01:58;;;;;;;19.88;4.78;;;;;;;;;;4968860;28;25068;-73
2023/05/27 01:04:24;;;;;;;13.52;4.35;;;;;;;;;;4967290;28;25055;-73
2023/05/27 01:06:59;;;;;;;18.52;4.57;;;;;;;;;;4969120;28;25065;-74
2023/05/27 01:09:37;;;;;;;16.80;4.40;;;;;;;;;;4982785;28;25063;-75
2023/05/27 01:12:16;;;;;;;12.00;4.15;;;;;;;;;;4969080;28;25051;-73
2023/05/27 01:14:43;;;;;;;33.28;4.95;;;;;;;;;;4970432;28;25066;-72
2023/05/27 01:17:10;;;;;;;16.95;4.65;;;;;;;;;;4967126;28;25157;-73
2023/05/27 01:19:42;;;;;;;18.55;4.22;;;;;;;;;;4970596;28;25166;-74
2023/05/27 01:22:08;;;;;;;;;;;;;;;;;;4968091;28;25066;-73
2023/05/27 01:24:34;;;;;;;23.65;3.88;;;;;;;;;;4958116;28;25065;-73
2023/05/27 01:27:02;;;;;;;22.30;5.35;;;;;;;;;;4972628;28;25076;-74
2023/05/27 01:29:28;;;;;;;12.27;4.30;;;;;;;;;;4981666;28;25057;-73
2023/05/27 01:31:58;;;;;;;20.25;4.45;;;;;;;;;;4978362;28;25084;-76
2023/05/27 01:34:29;;;;;;;23.00;6.90;;;;;;;;;;4980141;28;25153;-73
2023/05/27 01:36:59;;;;;;;18.45;4.25;;;;;;;;;;4986354;28;25067;-74
2023/05/27 01:39:25;;;;;;;15.40;4.13;;;;;;;;;;4984642;28;25081;-72
2023/05/27 01:41:52;;;;;;;23.80;4.55;;;;;;;;;;4984340;28;25075;-73
2023/05/27 01:44:20;;;;;;;22.98;5.28;;;;;;;;;;4971931;28;25085;-75
2023/05/27 01:46:46;;;;;;;25.52;4.15;;;;;;;;;;4972616;28;25080;-75
2023/05/27 01:49:12;;;;;;;23.42;6.10;;;;;;;;;;4970381;28;25071;-73
2023/05/27 01:51:38;;;;;;;13.48;4.13;;;;;;;;;;4965866;28;25079;-77
2023/05/27 01:54:04;;;;;;;16.83;3.97;;;;;;;;;;4968586;28;25083;-73
2023/05/27 01:56:31;;;;;;;16.77;4.13;;;;;;;;;;4969746;28;25153;-71
2023/05/27 01:58:57;;;;;;;13.52;4.05;;;;;;;;;;4967800;28;25563;-75
2023/05/27 02:01:23;;;;;;;13.77;3.88;;;;;;;;;;4967023;28;25086;-81
2023/05/27 02:03:49;;;;;;;23.55;5.15;;;;;;;;;;4966816;28;25083;-72
2023/05/27 02:06:15;;;;;;;16.70;3.97;;;;;;;;;;4962854;28;25128;-71
2023/05/27 02:08:41;;;;;;;14.77;4.10;;;;;;;;;;4966256;28;25090;-75
2023/05/27 02:11:07;;;;;;;16.92;4.78;;;;;;;;;;4966378;28;25148;-73
2023/05/27 02:13:33;;;;;;;15.80;4.07;;;;;;;;;;4965906;28;25179;-74
2023/05/27 02:15:59;;;;;;;17.48;3.55;;;;;;;;;;4968518;28;25066;-72
2023/05/27 02:18:25;;;;;;;15.20;4.75;;;;;;;;;;4969140;28;25046;-74
2023/05/27 02:20:51;;;;;;;13.13;4.43;;;;;;;;;;4969650;28;25072;-74
2023/05/27 02:23:17;;;;;;;16.13;4.65;;;;;;;;;;4970329;28;25120;-72
2023/05/27 02:25:43;;;;;;;18.42;4.25;;;;;;;;;;4971222;28;25108;-73
2023/05/27 02:28:10;;;;;;;21.23;4.45;;;;;;;;;;4978511;28;25057;-74
2023/05/27 02:30:36;;;;;;;16.52;4.65;;;;;;;;;;4970281;28;25066;-74
2023/05/27 02:33:02;;;;;;;22.48;6.13;;;;;;;;;;4967288;28;25058;-76
2023/05/27 02:35:28;;;;;;;16.27;4.93;;;;;;;;;;4967164;28;25071;-73
2023/05/27 02:37:53;;;;;;;14.98;4.22;;;;;;;;;;4967784;28;25059;-75
2023/05/27 02:40:29;;;;;;;19.95;4.38;;;;;;;;;;4965717;28;25106;-74
2023/05/27 02:42:56;;;;;;;18.52;5.20;;;;;;;;;;4966185;28;25072;-73
2023/05/27 02:45:22;;;;;;;20.13;4.40;;;;;;;;;;4964422;28;25060;-74
2023/05/27 02:47:49;;;;;;;12.65;4.60;;;;;;;;;;4966466;28;25053;-74
2023/05/27 02:50:15;;;;;;;16.10;4.85;;;;;;;;;;4963570;28;25099;-75
2023/05/27 02:52:41;;;;;;;16.95;4.13;;;;;;;;;;4967066;28;25079;-76
2023/05/27 02:55:07;;;;;;;14.10;4.63;;;;;;;;;;4964919;28;25110;-75
2023/05/27 02:57:33;;;;;;;18.08;3.75;;;;;;;;;;4965018;28;25064;-74
2023/05/27 02:59:59;;;;;;;15.48;4.28;;;;;;;;;;4967520;28;25067;-72
2023/05/27 03:02:25;;;;;;;17.27;4.75;;;;;;;;;;4968178;28;25083;-73
2023/05/27 03:04:55;;;;;;;15.05;4.88;;;;;;;;;;4974890;28;25170;-73
2023/05/27 03:07:21;;;;;;;16.20;4.63;;;;;;;;;;4970147;28;25082;-72
2023/05/27 03:09:47;;;;;;;16.30;4.00;;;;;;;;;;4971788;28;25064;-75
2023/05/27 03:12:13;;;;;;;17.08;4.78;;;;;;;;;;4971921;28;25101;-73
2023/05/27 03:14:39;;;;;;;19.00;5.50;;;;;;;;;;4968349;28;25131;-75
2023/05/27 03:17:05;;;;;;;18.73;5.53;;;;;;;;;;4967890;28;25057;-77
2023/05/27 03:19:31;;;;;;;23.65;4.82;;;;;;;;;;4968958;28;25063;-72
2023/05/27 03:21:57;;;;;;;16.10;4.10;;;;;;;;;;4970273;28;25043;-75
2023/05/27 03:24:23;;;;;;;19.83;4.35;;;;;;;;;;4967107;28;25054;-74
2023/05/27 03:26:49;;;;;;;16.85;4.70;;;;;;;;;;4969813;28;25055;-72
2023/05/27 03:29:15;;;;;;;23.13;5.50;;;;;;;;;;4967012;28;25061;-74
2023/05/27 03:31:41;;;;;;;24.92;5.15;;;;;;;;;;4976493;28;25165;-72
2023/05/27 03:34:07;;;;;;;18.33;4.50;;;;;;;;;;4968580;28;25095;-73
2023/05/27 03:36:35;;;;;;;12.63;4.25;;;;;;;;;;4971337;28;25061;-73
2023/05/27 03:39:01;;;;;;;17.08;5.75;;;;;;;;;;4971632;28;25063;-76
2023/05/27 03:41:27;;;;;;;15.95;5.85;;;;;;;;;;4972914;28;25073;-76
2023/05/27 03:43:52;;;;;;;24.55;5.55;;;;;;;;;;4967490;28;25054;-75
2023/05/27 03:46:18;;;;;;;24.90;5.65;;;;;;;;;;4970548;28;25056;-73
2023/05/27 03:48:44;;;;;;;23.65;5.25;;;;;;;;;;4968524;28;25090;-74
2023/05/27 03:51:10;;;;;;;15.25;4.28;;;;;;;;;;4970318;28;25073;-72
2023/05/27 03:53:36;;;;;;;17.08;4.07;;;;;;;;;;4969723;28;25055;-72
2023/05/27 03:56:02;;;;;;;15.27;4.25;;;;;;;;;;4969462;28;25113;-76
2023/05/27 03:58:28;;;;;;;22.30;4.50;;;;;;;;;;4968054;28;25110;-71
2023/05/27 04:00:55;;;;;;;17.70;5.65;;;;;;;;;;4971932;28;25155;-73
2023/05/27 04:03:21;;;;;;;22.25;5.93;;;;;;;;;;4973837;28;25057;-71
2023/05/27 04:05:47;;;;;;;16.13;5.13;;;;;;;;;;4979928;28;25097;-74
2023/05/27 04:08:13;;;;;;;16.27;4.45;;;;;;;;;;4978506;28;25079;-73
2023/05/27 04:10:39;;;;;;;20.88;4.97;;;;;;;;;;4975885;28;25073;-74
2023/05/27 04:13:05;;;;;;;14.15;5.30;;;;;;;;;;4967483;28;25078;-76
2023/05/27 04:15:31;;;;;;;14.80;5.05;;;;;;;;;;4975901;28;25058;-75
2023/05/27 04:17:57;;;;;;;19.00;5.03;;;;;;;;;;4970222;28;25137;-73
2023/05/27 04:20:23;;;;;;;14.98;5.70;;;;;;;;;;4968031;28;25075;-72
2023/05/27 04:22:50;;;;;;;18.15;4.78;;;;;;;;;;4968904;28;25072;-73
2023/05/27 04:25:15;;;;;;;18.52;5.47;;;;;;;;;;4971390;28;25063;-72
2023/05/27 04:27:42;;;;;;;18.05;5.22;;;;;;;;;;4976774;28;25072;-73
2023/05/27 04:30:08;;;;;;;22.27;4.47;;;;;;;;;;4969467;28;25060;-74
2023/05/27 04:32:37;;;;;;;14.63;4.57;;;;;;;;;;4967878;28;25093;-74
2023/05/27 04:35:05;;;;;;;13.27;4.60;;;;;;;;;;4967852;28;25081;-73
2023/05/27 04:37:32;;;;;;;15.23;4.38;;;;;;;;;;4968630;28;25149;-75
2023/05/27 04:39:58;;;;;;;8.23;4.15;;;;;;;;;;4970360;28;25103;-73
2023/05/27 04:42:24;;;;;;;24.00;6.05;;;;;;;;;;4974147;28;25128;-72
2023/05/27 04:44:51;;;;;;;18.75;5.13;;;;;;;;;;4970584;28;25080;-74
2023/05/27 04:47:17;;;;;;;16.33;4.57;;;;;;;;;;4967023;28;25168;-73
2023/05/27 04:49:46;;;;;;;17.00;5.50;;;;;;;;;;4970012;28;25064;-75
2023/05/27 04:52:12;;;;;;;21.88;5.65;;;;;;;;;;4969993;28;25068;-75
2023/05/27 04:54:38;;;;;;;23.23;4.50;;;;;;;;;;4968670;28;25060;-74
2023/05/27 04:57:04;;;;;;;19.60;6.65;;;;;;;;;;4970823;28;25086;-74
2023/05/27 04:59:45;;;;;;;11.00;3.70;;;;;;;;;;4966929;28;25072;-76
2023/05/27 05:02:21;;;;;;;13.57;4.87;;;;;;;;;;4966866;28;25116;-75
2023/05/27 05:04:47;;;;;;;22.50;5.10;;;;;;;;;;4967872;28;25072;-73
2023/05/27 05:07:13;;;;;;;15.57;5.57;;;;;;;;;;4967255;28;25057;-74
2023/05/27 05:09:39;;;;;;;23.75;5.25;;;;;;;;;;4968889;28;25094;-73
2023/05/27 05:12:06;;;;;;;18.85;4.82;;;;;;;;;;4968572;28;25091;-74
2023/05/27 05:14:32;;;;;;;20.25;5.07;;;;;;;;;;4968421;28;25072;-73
2023/05/27 05:16:58;;;;;;;17.00;5.45;;;;;;;;;;4969050;28;25324;-72
2023/05/27 05:19:24;;;;;;;17.42;5.43;;;;;;;;;;4967430;28;25048;-73
2023/05/27 05:21:50;;;;;;;11.18;4.20;;;;;;;;;;4972319;28;25093;-73
2023/05/27 05:24:16;;;;;;;21.08;5.80;;;;;;;;;;4966197;28;25081;-74
2023/05/27 05:26:43;;;;;;;14.52;4.85;;;;;;;;;;4968321;28;25066;-74
2023/05/27 05:29:10;;;;;;;16.85;5.03;;;;;;;;;;4966027;28;25068;-71
2023/05/27 05:31:36;;;;;;;21.27;5.07;;;;;;;;;;4970171;28;25092;-71
2023/05/27 05:34:02;;;;;;;19.35;4.60;;;;;;;;;;4968173;28;25070;-79
2023/05/27 05:36:28;;;;;;;18.50;4.60;;;;;;;;;;4969220;28;25072;-77
2023/05/27 05:38:54;;;;;;;14.18;5.07;;;;;;;;;;4966166;28;25087;-72
2023/05/27 05:41:21;;;;;;;15.35;4.28;;;;;;;;;;4967397;28;25077;-73
2023/05/27 05:43:47;;;;;;;21.75;5.03;;;;;;;;;;4966984;28;25169;-74
2023/05/27 05:46:13;;;;;;;18.73;5.15;;;;;;;;;;4967316;28;25057;-72
2023/05/27 05:48:39;;;;;;;21.38;5.03;;;;;;;;;;4964746;28;25342;-74
2023/05/27 05:51:05;;;;;;;14.57;4.53;;;;;;;;;;4969581;28;25059;-73
2023/05/27 05:53:32;;;;;;;16.38;4.47;;;;;;;;;;4966894;28;25097;-74
2023/05/27 05:55:58;;;;;;;16.55;4.22;;;;;;;;;;4971522;28;25059;-74
2023/05/27 05:58:24;;;;;;;18.58;4.85;;;;;;;;;;4966889;28;25061;-74
2023/05/27 06:00:50;;;;;;;20.98;5.05;;;;;;;;;;4971043;28;25064;-74
2023/05/27 06:03:16;;;;;;;16.20;5.43;;;;;;;;;;4966954;28;25065;-75
2023/05/27 06:05:42;;;;;;;14.00;4.18;;;;;;;;;;4970409;28;25108;-71
2023/05/27 06:08:08;;;;;;;20.58;4.82;;;;;;;;;;4965956;28;25071;-73
2023/05/27 06:10:34;;;;;;;18.17;4.75;;;;;;;;;;4969313;28;25058;-74
2023/05/27 06:13:00;;;;;;;14.27;4.47;;;;;;;;;;4967830;28;25146;-75
2023/05/27 06:15:26;;;;;;;17.45;5.22;;;;;;;;;;4968536;28;25074;-71
2023/05/27 06:17:53;;;;;;;16.25;4.45;;;;;;;;;;4971188;28;25041;-74
2023/05/27 06:20:19;;;;;;;16.42;4.70;;;;;;;;;;4970421;28;25056;-77
2023/05/27 06:22:48;;;;;;;18.55;4.78;;;;;;;;;;4973893;28;25142;-75
2023/05/27 06:25:15;;;;;;;11.73;4.63;;;;;;;;;;4969164;28;25053;-76
2023/05/27 06:27:42;;;;;;;14.48;4.85;;;;;;;;;;4973086;28;25065;-76
2023/05/27 06:30:08;;;;;;;14.65;5.57;;;;;;;;;;4967139;28;25064;-74
2023/05/27 06:32:34;;;;;;;16.33;5.10;;;;;;;;;;4966089;28;25090;-76
2023/05/27 06:35:00;;;;;;;13.63;4.57;;;;;;;;;;4968852;28;25175;-75
2023/05/27 06:37:26;;;;;;;20.80;4.90;;;;;;;;;;4967521;28;25071;-77
2023/05/27 06:39:52;;;;;;;22.63;4.60;;;;;;;;;;4967904;28;25098;-76
2023/05/27 06:42:18;;;;;;;25.90;5.93;;;;;;;;;;4968631;28;25107;-75
2023/05/27 06:44:44;;;;;;;15.90;4.93;;;;;;;;;;4970139;28;25050;-76
2023/05/27 06:47:11;;;;;;;21.42;5.10;;;;;;;;;;4968755;28;25075;-76
2023/05/27 06:49:37;;;;;;;22.15;5.43;;;;;;;;;;4970874;28;25074;-75
2023/05/27 06:52:03;;;;;;;17.30;4.93;;;;;;;;;;4971603;28;25054;-74
2023/05/27 06:54:30;;;;;;;16.02;6.32;;;;;;;;;;4970216;28;25082;-76
2023/05/27 06:56:56;;;;;;;19.40;5.43;;;;;;;;;;4971487;28;25050;-75
2023/05/27 06:59:22;;;;;;;14.32;4.85;;;;;;;;;;4971252;28;25073;-77
2023/05/27 07:01:48;;;;;;;15.32;4.90;;;;;;;;;;4971505;28;25086;-78
2023/05/27 07:04:14;;;;;;;19.23;5.53;;;;;;;;;;4968697;28;25137;-75
2023/05/27 07:06:40;;;;;;;19.58;5.28;;;;;;;;;;4971094;28;25141;-74
2023/05/27 07:09:06;;;;;;;20.85;4.90;;;;;;;;;;4969079;28;25096;-74
2023/05/27 07:11:33;;;;;;;25.30;5.10;;;;;;;;;;4970534;28;25049;-76
2023/05/27 07:13:59;;;;;;;21.90;5.63;;;;;;;;;;4968656;28;25061;-76
2023/05/27 07:16:26;;;;;;;14.38;4.60;;;;;;;;;;4971169;28;25128;-77
2023/05/27 07:18:51;;;;;;;14.65;5.72;;;;;;;;;;4968429;28;25063;-76
2023/05/27 07:21:18;;;;;;;14.80;4.75;;;;;;;;;;4971337;28;25109;-75
2023/05/27 07:23:44;;;;;;;16.98;5.03;;;;;;;;;;4969368;28;25069;-75
2023/05/27 07:26:10;;;;;;;14.82;4.35;;;;;;;;;;4971860;28;25084;-75
2023/05/27 07:28:37;;;;;;;20.13;5.32;;;;;;;;;;4972278;28;25139;-73
2023/05/27 07:31:03;;;;;;;21.27;5.82;;;;;;;;;;4972650;28;25089;-74
2023/05/27 07:33:29;;;;;;;18.35;4.88;;;;;;;;;;4971294;28;25098;-73
2023/05/27 07:35:55;;;;;;;17.88;5.10;;;;;;;;;;4970267;28;25094;-74
2023/05/27 07:38:21;;;;;;;18.42;4.75;;;;;;;;;;4971579;28;25203;-75
2023/05/27 07:40:47;;;;;;;21.13;6.15;;;;;;;;;;4973889;28;25174;-74
2023/05/27 07:43:13;;;;;;;19.30;5.15;;;;;;;;;;4971865;28;25072;-77
2023/05/27 07:45:39;;;;;;;15.30;5.30;;;;;;;;;;4972290;28;25078;-75
2023/05/27 07:48:05;;;;;;;17.02;5.05;;;;;;;;;;4972013;28;25125;-76
2023/05/27 07:50:31;;;;;;;18.08;5.82;;;;;;;;;;4971124;28;25075;-75
2023/05/27 07:52:57;;;;;;;23.90;5.82;;;;;;;;;;4969449;28;25087;-76
2023/05/27 07:55:23;;;;;;;17.75;5.40;;;;;;;;;;4968163;28;25064;-76
2023/05/27 07:57:49;;;;;;;15.35;4.85;;;;;;;;;;4968743;28;25109;-76
2023/05/27 08:00:15;;;;;;;16.83;4.97;;;;;;;;;;4968104;28;25069;-73
2023/05/27 08:02:43;;;;;;;20.00;5.13;;;;;;;;;;4969979;28;25058;-72
2023/05/27 08:05:09;;;;;;;25.38;5.00;;;;;;;;;;4969880;28;25144;-75
2023/05/27 08:07:35;;;;;;;14.23;4.85;;;;;;;;;;4967447;28;25079;-74
2023/05/27 08:10:01;;;;;;;17.65;5.15;;;;;;;;;;4971285;28;25064;-73
2023/05/27 08:12:27;;;;;;;19.67;5.95;;;;;;;;;;4969521;28;25079;-75
2023/05/27 08:14:53;;;;;;;16.30;4.63;;;;;;;;;;4970265;28;25063;-78
2023/05/27 08:17:19;;;;;;;14.27;5.53;;;;;;;;;;4967416;28;25051;-76
2023/05/27 08:19:45;;;;;;;17.42;6.00;;;;;;;;;;4972339;28;25134;-75
2023/05/27 08:22:11;;;;;;;24.13;5.65;;;;;;;;;;4971243;28;25178;-75
2023/05/27 08:24:38;;;;;;;21.33;6.10;;;;;;;;;;4972375;28;25110;-76
2023/05/27 08:27:06;;;;;;;12.50;5.15;;;;;;;;;;4978568;28;25048;-75
2023/05/27 08:29:33;;;;;;;17.67;5.47;;;;;;;;;;4974274;28;25092;-74
2023/05/27 08:31:59;;;;;;;16.20;4.82;;;;;;;;;;4973286;28;25061;-75
2023/05/27 08:34:26;;;;;;;15.57;5.28;;;;;;;;;;4969520;28;25057;-74
2023/05/27 08:36:51;;;;;;;17.88;6.00;;;;;;;;;;4969539;28;25069;-76
2023/05/27 08:39:18;;;;;;;23.30;5.80;;;;;;;;;;4968951;28;25049;-75
2023/05/27 08:41:44;;;;;;;15.82;7.10;;;;;;;;;;4969897;28;25063;-74
2023/05/27 08:44:10;;;;;;;19.35;6.47;;;;;;;;;;4972790;28;25178;-74
2023/05/27 08:46:37;;;;;;;18.45;6.30;;;;;;;;;;4974095;28;25087;-76
2023/05/27 08:49:03;;;;;;;15.75;5.38;;;;;;;;;;4971301;28;25065;-77
2023/05/27 08:51:29;;;;;;;16.90;5.45;;;;;;;;;;4970007;28;25046;-76
2023/05/27 08:53:55;;;;;;;20.33;6.38;;;;;;;;;;4970158;28;25070;-75
2023/05/27 08:56:22;;;;;;;23.70;5.18;;;;;;;;;;4969136;28;25132;-77
2023/05/27 08:58:48;;;;;;;23.40;6.75;;;;;;;;;;4970391;28;25141;-77
2023/05/27 09:01:18;;;;;;;17.83;5.18;;;;;;;;;;4969919;28;25054;-75
2023/05/27 09:03:45;;;;;;;16.38;5.80;;;;;;;;;;4970070;28;25099;-76
2023/05/27 09:06:11;;;;;;;17.85;5.50;;;;;;;;;;4968106;28;25063;-76
2023/05/27 09:08:36;;;;;;;18.00;6.00;;;;;;;;;;4967602;28;25162;-75
2023/05/27 09:11:02;;;;;;;18.95;5.45;;;;;;;;;;4968953;28;25078;-74
2023/05/27 09:13:29;;;;;;;16.25;5.88;;;;;;;;;;4967956;28;25062;-73
2023/05/27 09:16:03;;;;;;;18.10;5.22;;;;;;;;;;4968964;28;25058;-75
2023/05/27 09:18:33;;;;;;;15.90;5.05;;;;;;;;;;4970439;28;25072;-75
2023/05/27 09:21:00;;;;;;;19.42;5.85;;;;;;;;;;4969064;28;25068;-77
2023/05/27 09:23:27;;;;;;;26.25;6.93;;;;;;;;;;4969180;28;25084;-74
2023/05/27 09:25:53;;;;;;;19.63;5.28;;;;;;;;;;4971598;28;25081;-75
2023/05/27 09:28:26;;;;;;;14.43;4.82;;;;;;;;;;4971291;28;25073;-71
2023/05/27 09:31:00;;;;;;;24.45;5.68;;;;;;;;;;4966869;28;25045;-77
2023/05/27 09:33:26;;;;;;;16.40;6.13;;;;;;;;;;4969672;28;25158;-76
2023/05/27 09:35:53;;;;;;;16.27;5.78;;;;;;;;;;4971682;28;25096;-76
2023/05/27 09:38:20;;;;;;;23.10;6.05;;;;;;;;;;4973247;28;25062;-74
2023/05/27 09:40:46;;;;;;;13.98;4.55;;;;;;;;;;4973885;28;25064;-78
2023/05/27 09:43:15;;;;;;;16.48;4.97;;;;;;;;;;4971732;28;25060;-76
2023/05/27 09:45:42;;;;;;;22.15;6.03;;;;;;;;;;4968840;28;25072;-76
2023/05/27 09:48:10;;;;;;;21.42;5.55;;;;;;;;;;4976456;28;25089;-76
2023/05/27 09:50:37;;;;;;;23.60;5.95;;;;;;;;;;4973965;28;25166;-76
2023/05/27 09:53:04;;;;;;;17.23;5.97;;;;;;;;;;4976836;28;25106;-72
2023/05/27 09:55:30;;;;;;;16.73;5.25;;;;;;;;;;4984278;28;25093;-73
2023/05/27 09:57:56;;;;;;;17.65;6.25;;;;;;;;;;4979827;28;25104;-76
2023/05/27 10:00:23;;;;;;;20.83;5.65;;;;;;;;;;4972495;28;25122;-76
2023/05/27 10:02:51;;;;;;;18.08;5.70;;;;;;;;;;4974006;28;25079;-77
2023/05/27 10:05:20;;;;;;;20.63;6.05;;;;;;;;;;4972688;28;25069;-77
2023/05/27 10:07:46;;;;;;;24.20;5.68;;;;;;;;;;4967488;28;25064;-78
2023/05/27 10:10:20;;;;;;;22.17;5.82;;;;;;;;;;4973332;28;25100;-76
2023/05/27 10:12:47;;;;;;;17.58;5.97;;;;;;;;;;4974330;28;25165;-79
2023/05/27 10:15:29;;;;;;;22.55;5.97;;;;;;;;;;4970875;28;25096;-76
2023/05/27 10:17:56;;;;;;;19.10;5.63;;;;;;;;;;4975492;28;25126;-76
2023/05/27 10:20:33;;;;;;;16.65;5.93;;;;;;;;;;4986835;28;25067;-73
2023/05/27 10:23:15;;;;;;;19.90;6.40;;;;;;;;;;4988583;28;25061;-78
2023/05/27 10:25:46;;;;;;;17.42;5.85;;;;;;;;;;4989516;28;25064;-76
2023/05/27 10:28:23;;;;;;;24.90;7.45;;;;;;;;;;4979371;28;25083;-77
2023/05/27 10:30:49;;;;;;;16.70;6.07;;;;;;;;;;4971689;28;25061;-76
2023/05/27 10:33:15;;;;;;;18.17;5.68;;;;;;;;;;4973094;28;25057;-76
2023/05/27 10:35:41;;;;;;;16.67;5.28;;;;;;;;;;4973872;28;25103;-76
2023/05/27 10:38:17;;;;;;;18.42;5.90;;;;;;;;;;4974226;28;25075;-74
2023/05/27 10:40:44;;;;;;;14.25;5.32;;;;;;;;;;4974495;28;25082;-76
2023/05/27 10:43:17;;;;;;;19.40;5.20;;;;;;;;;;4971353;28;25073;-76
2023/05/27 10:45:43;;;;;;;15.80;5.53;;;;;;;;;;4974916;28;25071;-78
2023/05/27 10:48:16;;;;;;;15.68;5.15;;;;;;;;;;4971139;28;25063;-74
2023/05/27 10:50:49;;;;;;;15.35;4.80;;;;;;;;;;4976297;28;25149;-74
2023/05/27 10:53:17;;;;;;;17.58;4.93;;;;;;;;;;4974057;28;25070;-74
2023/05/27 10:55:43;;;;;;;17.65;5.25;;;;;;;;;;4978430;28;25058;-78
2023/05/27 10:58:09;;;;;;;13.10;4.68;;;;;;;;;;4973970;28;25067;-73
2023/05/27 11:00:36;;;;;;;18.38;5.38;;;;;;;;;;4977229;28;25070;-77
2023/05/27 11:03:02;;;;;;;14.68;5.32;;;;;;;;;;4978749;28;25082;-74
2023/05/27 11:05:32;;;;;;;13.68;5.47;;;;;;;;;;4976754;28;25133;-75
2023/05/27 11:08:00;;;;;;;22.40;6.40;;;;;;;;;;4972706;28;25084;-77
2023/05/27 11:10:26;;;;;;;18.60;4.90;;;;;;;;;;4977274;28;25072;-76
2023/05/27 11:12:52;;;;;;;13.15;4.57;;;;;;;;;;4972043;28;25143;-75
2023/05/27 11:15:19;;;;;;;20.52;6.05;;;;;;;;;;4974817;28;25118;-75
2023/05/27 11:17:45;;;;;;;14.48;5.15;;;;;;;;;;4976520;28;25057;-76
2023/05/27 11:20:12;;;;;;;16.40;6.63;;;;;;;;;;4973379;28;25059;-75
2023/05/27 11:22:39;;;;;;;22.30;5.45;;;;;;;;;;4975829;28;25069;-75
2023/05/27 11:25:06;;;;;;;17.98;4.95;;;;;;;;;;4970960;28;25177;-76
2023/05/27 11:27:38;;;;;;;18.35;5.70;;;;;;;;;;4971283;28;25080;-76
2023/05/27 11:30:09;;;;;;;14.55;5.05;;;;;;;;;;4972891;28;25075;-75
2023/05/27 11:32:35;;;;;;;14.30;5.13;;;;;;;;;;4968345;28;25076;-75
2023/05/27 11:35:02;;;;;;;23.42;5.63;;;;;;;;;;4971666;28;25086;-74
2023/05/27 11:37:32;;;;;;;14.70;5.82;;;;;;;;;;4969729;28;25135;-77
2023/05/27 11:39:58;;;;;;;14.07;5.82;;;;;;;;;;4972153;28;25131;-75
2023/05/27 11:42:24;;;;;;;15.85;5.20;;;;;;;;;;4972823;28;25141;-77
2023/05/27 11:44:52;;;;;;;15.60;4.90;;;;;;;;;;4976649;28;25078;-76
2023/05/27 11:47:18;;;;;;;17.60;5.03;;;;;;;;;;4971146;28;25069;-76
2023/05/27 11:49:44;;;;;;;19.05;5.85;;;;;;;;;;4977970;28;25056;-75
2023/05/27 11:52:11;;;;;;;14.50;4.32;;;;;;;;;;4976998;28;25071;-74
2023/05/27 11:54:38;;;;;;;12.73;5.10;;;;;;;;;;4974695;28;25063;-73
2023/05/27 11:57:10;;;;;;;15.63;4.57;;;;;;;;;;4969731;28;25074;-73
2023/05/27 11:59:36;;;;;;;20.77;5.45;;;;;;;;;;4969174;28;25162;-76
2023/05/27 12:02:06;;;;;;;9.52;4.55;;;;;;;;;;4969610;28;25088;-73
2023/05/27 12:04:32;;;;;;;15.05;4.80;;;;;;;;;;4972859;28;25151;-76
2023/05/27 12:07:00;;;;;;;20.15;5.13;;;;;;;;;;4974815;28;25053;-74
2023/05/27 12:09:26;;;;;;;16.08;4.50;;;;;;;;;;4971027;28;25081;-76
2023/05/27 12:11:53;;;;;;;18.15;4.50;;;;;;;;;;4970515;28;25069;-74
2023/05/27 12:14:19;;;;;;;14.13;4.28;;;;;;;;;;4968749;28;25055;-74
2023/05/27 12:16:45;;;;;;;13.82;3.97;;;;;;;;;;4969959;28;25065;-75
2023/05/27 12:19:11;;;;;;;16.40;4.30;;;;;;;;;;4967162;28;25063;-76
2023/05/27 12:21:37;;;;;;;11.65;4.53;;;;;;;;;;4968365;28;25058;-74
2023/05/27 12:24:03;;;;;;;15.50;4.90;;;;;;;;;;4967148;28;25058;-74
2023/05/27 12:26:31;;;;;;;13.25;4.65;;;;;;;;;;4967209;28;25064;-75
2023/05/27 12:28:57;;;;;;;12.60;3.97;;;;;;;;;;4965850;28;25103;-74
2023/05/27 12:31:23;;;;;;;16.25;5.03;;;;;;;;;;4967405;28;25089;-75
2023/05/27 12:33:49;;;;;;;13.55;4.38;;;;;;;;;;4966380;28;25181;-74
2023/05/27 12:36:15;;;;;;;12.70;4.90;;;;;;;;;;4966770;28;25076;-75
2023/05/27 12:38:41;;;;;;;17.48;4.32;;;;;;;;;;4963298;28;25059;-76
2023/05/27 12:41:07;;;;;;;13.25;4.93;;;;;;;;;;4959792;28;25078;-76
2023/05/27 12:43:33;;;;;;;17.80;5.20;;;;;;;;;;4961627;28;25072;-76
2023/05/27 12:46:00;;;;;;;14.30;4.63;;;;;;;;;;4966140;28;25134;-75
2023/05/27 12:48:25;;;;;;;16.45;4.70;;;;;;;;;;4954509;28;25075;-76
2023/05/27 12:50:52;;;;;;;12.68;4.22;;;;;;;;;;4967809;28;25100;-76
2023/05/27 12:53:18;;;;;;;16.70;5.50;;;;;;;;;;4968930;28;25067;-75
2023/05/27 12:55:44;;;;;;;15.25;5.07;;;;;;;;;;4968313;28;25082;-74
2023/05/27 12:58:11;;;;;;;11.32;4.43;;;;;;;;;;4966210;28;25157;-77
2023/05/27 13:00:37;;;;;;;12.27;5.57;;;;;;;;;;4965133;28;25070;-77
2023/05/27 13:03:03;;;;;;;13.65;3.75;;;;;;;;;;4964605;28;25063;-74
2023/05/27 13:05:29;;;;;;;14.90;3.97;;;;;;;;;;4962911;28;25113;-75
2023/05/27 13:07:59;;;;;;;16.27;4.32;;;;;;;;;;4964082;28;25072;-75
2023/05/27 13:10:26;;;;;;;17.67;5.35;;;;;;;;;;4961110;28;25058;-75
2023/05/27 13:12:52;;;;;;;14.48;4.90;;;;;;;;;;4963973;28;25125;-76
2023/05/27 13:15:19;;;;;;;12.70;4.70;;;;;;;;;;4960895;28;25070;-73
2023/05/27 13:17:45;;;;;;;13.50;5.65;;;;;;;;;;4963108;28;25097;-74
2023/05/27 13:20:12;;;;;;;18.88;4.30;;;;;;;;;;4968976;28;25071;-76
2023/05/27 13:22:38;;;;;;;14.50;4.18;;;;;;;;;;4959276;28;25070;-74
2023/05/27 13:25:04;;;;;;;15.55;5.30;;;;;;;;;;4963134;28;25048;-75
2023/05/27 13:27:30;;;;;;;10.73;4.70;;;;;;;;;;4965936;28;25131;-74
2023/05/27 13:29:57;;;;;;;14.38;4.90;;;;;;;;;;4971859;28;25070;-75
2023/05/27 13:32:23;;;;;;;12.50;5.00;;;;;;;;;;4965491;28;25045;-74
2023/05/27 13:34:49;;;;;;;25.27;5.25;;;;;;;;;;4966554;28;25054;-73
2023/05/27 13:37:15;;;;;;;16.17;4.90;;;;;;;;;;4963222;28;25056;-76
2023/05/27 13:39:42;;;;;;;21.48;4.72;;;;;;;;;;4961315;28;25074;-72
2023/05/27 13:42:09;;;;;;;25.92;6.43;;;;;;;;;;4956274;28;25089;-75
2023/05/27 13:44:35;;;;;;;387.92;225.98;;;;;;;;;;4960746;28;25062;-74
2023/05/27 13:47:01;;;;;;;765.85;517.47;;;;;;;;;;4965848;28;25072;-79
2023/05/27 13:49:27;;;;;;;840.10;512.78;;;;;;;;;;4964044;28;25104;-72
2023/05/27 13:51:53;;;;;;;296.75;168.02;;;;;;;;;;4963165;28;25061;-73
2023/05/27 13:54:20;;;;;;;21.10;12.00;;;;;;;;;;4966931;28;25052;-75
2023/05/27 13:56:46;;;;;;;49.45;30.65;;;;;;;;;;4963939;28;25056;-73
2023/05/27 13:59:12;;;;;;;15.63;5.30;;;;;;;;;;4959310;28;25056;-74
2023/05/27 14:01:38;;;;;;;18.58;9.85;;;;;;;;;;4960877;28;25065;-75
2023/05/27 14:04:04;;;;;;;234.85;105.75;;;;;;;;;;4956067;28;25067;-72
2023/05/27 14:06:31;;;;;;;105.15;45.45;;;;;;;;;;4960083;28;25066;-75
2023/05/27 14:08:57;;;;;;;14.27;5.25;;;;;;;;;;4956612;28;25058;-74
2023/05/27 14:11:23;;;;;;;15.77;4.88;;;;;;;;;;4957276;28;25078;-73
2023/05/27 14:13:49;;;;;;;14.10;5.35;;;;;;;;;;4958531;28;25063;-73
2023/05/27 14:16:15;;;;;;;32.75;13.95;;;;;;;;;;4959103;28;25045;-75
2023/05/27 14:18:43;;;;;;;18.92;5.90;;;;;;;;;;4963771;28;25053;-73
2023/05/27 14:21:09;;;;;;;39.22;12.02;;;;;;;;;;4961758;28;25068;-71
2023/05/27 14:23:35;;;;;;;20.27;6.18;;;;;;;;;;4966062;28;25108;-77
2023/05/27 14:26:01;;;;;;;67.22;29.90;;;;;;;;;;4958937;28;25125;-74